createdAt,value
2018-04-13T00:02:02.841Z,10.30
2018-04-13T00:04:31.187Z,10.20
2018-04-13T00:06:59.403Z,10.20
2018-04-13T00:09:26.992Z,10.20
2018-04-13T00:11:54.455Z,10.10
2018-04-13T00:14:21.986Z,10.10
2018-04-13T00:16:49.435Z,10.00
2018-04-13T00:19:16.896Z,9.90
2018-04-13T00:21:44.388Z,9.90
2018-04-13T00:24:11.826Z,9.90
2018-04-13T00:26:39.292Z,9.90
2018-04-13T00:29:06.981Z,9.90
2018-04-13T00:31:34.421Z,9.80
2018-04-13T00:34:01.873Z,9.70
2018-04-13T00:36:29.361Z,9.70
2018-04-13T00:38:56.797Z,9.70
2018-04-13T00:41:24.232Z,9.70
2018-04-13T00:43:51.705Z,9.60
2018-04-13T00:46:19.235Z,9.50
2018-04-13T00:48:46.681Z,9.50
2018-04-13T00:51:14.153Z,9.50
2018-04-13T00:53:41.595Z,9.50
2018-04-13T00:56:09.091Z,9.50
2018-04-13T00:58:37.374Z,9.40
2018-04-13T01:01:25.726Z,9.40
2018-04-13T01:03:53.170Z,9.40
2018-04-13T01:06:20.636Z,9.30
2018-04-13T01:08:48.096Z,9.30
2018-04-13T01:11:15.669Z,9.30
2018-04-13T01:13:43.115Z,9.20
2018-04-13T01:16:10.574Z,9.10
2018-04-13T01:18:38.036Z,9.00
2018-04-13T01:21:05.487Z,8.90
2018-04-13T01:23:34.941Z,8.90
2018-04-13T01:26:02.384Z,8.80
2018-04-13T01:28:35.545Z,8.80
2018-04-13T01:31:02.990Z,8.80
2018-04-13T01:33:30.455Z,8.90
2018-04-13T01:35:57.911Z,8.90
2018-04-13T01:38:25.390Z,8.90
2018-04-13T01:40:52.832Z,8.90
2018-04-13T01:43:20.371Z,8.90
2018-04-13T01:45:47.825Z,8.90
2018-04-13T01:48:15.313Z,8.90
2018-04-13T01:50:42.755Z,8.80
2018-04-13T01:53:10.217Z,8.90
2018-04-13T01:55:37.664Z,8.80
2018-04-13T01:58:05.234Z,8.80
2018-04-13T02:00:32.692Z,8.80
2018-04-13T02:03:00.135Z,8.70
2018-04-13T02:05:27.600Z,8.70
2018-04-13T02:07:55.055Z,8.70
2018-04-13T02:10:22.570Z,8.70
2018-04-13T02:12:50.016Z,8.60
2018-04-13T02:15:18.539Z,8.60
2018-04-13T02:17:45.991Z,8.60
2018-04-13T02:20:13.437Z,8.60
2018-04-13T02:22:41.026Z,8.50
2018-04-13T02:25:08.485Z,8.50
2018-04-13T02:27:35.956Z,8.50
2018-04-13T02:30:03.415Z,8.50
2018-04-13T02:32:30.872Z,8.40
2018-04-13T02:34:58.415Z,8.40
2018-04-13T02:37:25.864Z,8.40
2018-04-13T02:39:53.359Z,8.30
2018-04-13T02:42:20.806Z,8.30
2018-04-13T02:44:48.247Z,8.30
2018-04-13T02:47:15.748Z,8.20
2018-04-13T02:49:43.967Z,8.20
2018-04-13T02:52:29.974Z,8.20
2018-04-13T02:54:57.420Z,8.20
2018-04-13T02:57:24.863Z,8.10
2018-04-13T02:59:52.378Z,8.10
2018-04-13T03:02:20.620Z,8.00
2018-04-13T03:04:48.060Z,8.00
2018-04-13T03:07:15.539Z,8.00
2018-04-13T03:09:46.923Z,7.90
2018-04-13T03:12:15.199Z,7.80
2018-04-13T03:14:43.414Z,7.80
2018-04-13T03:17:11.416Z,7.80
2018-04-13T03:19:39.048Z,7.80
2018-04-13T03:22:06.492Z,7.80
2018-04-13T03:24:33.975Z,7.80
2018-04-13T03:27:01.476Z,7.70
2018-04-13T03:29:28.915Z,7.80
2018-04-13T03:32:03.154Z,7.70
2018-04-13T03:34:30.590Z,7.70
2018-04-13T03:36:58.035Z,7.70
2018-04-13T03:39:25.574Z,7.70
2018-04-13T03:41:53.027Z,7.70
2018-04-13T03:44:20.497Z,7.70
2018-04-13T03:46:48.001Z,7.60
2018-04-13T03:49:16.260Z,7.60
2018-04-13T03:51:43.723Z,7.60
2018-04-13T03:54:11.185Z,7.60
2018-04-13T03:56:38.624Z,7.60
2018-04-13T03:59:06.088Z,7.50
2018-04-13T04:01:33.545Z,7.50
2018-04-13T04:04:01.048Z,7.50
2018-04-13T04:06:28.499Z,7.40
2018-04-13T04:08:56.734Z,7.40
2018-04-13T04:11:24.180Z,7.40
2018-04-13T04:13:51.706Z,7.30
2018-04-13T04:16:19.174Z,7.30
2018-04-13T04:18:46.629Z,7.30
2018-04-13T04:21:25.978Z,7.30
2018-04-13T04:24:05.188Z,7.30
2018-04-13T04:26:45.217Z,7.20
2018-04-13T04:29:13.466Z,7.20
2018-04-13T04:31:40.907Z,7.20
2018-04-13T04:34:08.351Z,7.20
2018-04-13T04:36:35.924Z,7.20
2018-04-13T04:39:03.381Z,7.20
2018-04-13T04:41:30.825Z,7.20
2018-04-13T04:43:58.295Z,7.20
2018-04-13T04:46:25.771Z,7.20
2018-04-13T04:48:59.279Z,7.30
2018-04-13T04:51:26.749Z,7.30
2018-04-13T04:53:54.966Z,7.30
2018-04-13T04:56:22.751Z,7.30
2018-04-13T04:58:50.203Z,7.30
2018-04-13T05:01:17.651Z,7.40
2018-04-13T05:03:45.131Z,7.40
2018-04-13T05:06:12.575Z,7.40
2018-04-13T05:08:40.020Z,7.40
2018-04-13T05:11:07.511Z,7.30
2018-04-13T05:13:34.960Z,7.30
2018-04-13T05:16:02.407Z,7.40
2018-04-13T05:18:29.979Z,7.40
2018-04-13T05:21:01.532Z,7.40
2018-04-13T05:23:28.970Z,7.40
2018-04-13T05:25:56.418Z,7.40
2018-04-13T05:28:25.736Z,7.40
2018-04-13T05:30:53.292Z,7.40
2018-04-13T05:33:21.077Z,7.50
2018-04-13T05:35:48.797Z,7.50
2018-04-13T05:38:16.424Z,7.50
2018-04-13T05:40:44.679Z,7.50
2018-04-13T05:43:12.454Z,7.50
2018-04-13T05:45:40.459Z,7.50
2018-04-13T05:48:08.116Z,7.50
2018-04-13T05:50:36.347Z,7.50
2018-04-13T05:53:03.891Z,7.40
2018-04-13T05:55:31.336Z,7.50
2018-04-13T06:04:00.516Z,7.60
2018-04-13T06:06:28.023Z,7.60
2018-04-13T06:08:55.564Z,7.60
2018-04-13T06:11:23.784Z,7.70
2018-04-13T06:13:51.347Z,7.70
2018-04-13T06:16:18.805Z,7.70
2018-04-13T06:18:46.257Z,7.70
2018-04-13T06:21:14.024Z,7.80
2018-04-13T06:23:41.567Z,7.80
2018-04-13T06:26:09.111Z,7.80
2018-04-13T06:28:36.623Z,7.80
2018-04-13T06:31:04.064Z,7.80
2018-04-13T06:33:31.699Z,7.90
2018-04-13T06:35:59.415Z,7.90
2018-04-13T06:38:27.651Z,8.00
2018-04-13T06:40:59.207Z,8.00
2018-04-13T06:43:26.667Z,8.10
2018-04-13T06:45:54.107Z,8.10
2018-04-13T06:48:21.570Z,8.20
2018-04-13T06:50:49.021Z,8.30
2018-04-13T06:53:16.678Z,8.30
2018-04-13T06:55:44.111Z,8.40
2018-04-13T06:58:12.337Z,8.60
2018-04-13T07:00:39.804Z,8.50
2018-04-13T07:03:07.252Z,8.60
2018-04-13T07:05:36.892Z,8.70
2018-04-13T07:08:05.175Z,8.90
2018-04-13T07:10:32.677Z,8.90
2018-04-13T07:13:00.115Z,8.90
2018-04-13T07:15:27.593Z,9.00
2018-04-13T07:17:55.029Z,9.10
2018-04-13T07:20:22.497Z,9.20
2018-04-13T07:22:49.957Z,9.20
2018-04-13T07:25:17.533Z,9.30
2018-04-13T07:27:44.976Z,9.30
2018-04-13T07:30:12.685Z,9.40
2018-04-13T07:32:40.117Z,9.50
2018-04-13T07:35:07.988Z,9.60
2018-04-13T07:37:35.243Z,9.70
2018-04-13T07:40:02.688Z,9.80
2018-04-13T07:42:30.123Z,9.80
2018-04-13T07:44:57.807Z,9.90
2018-04-13T07:47:25.994Z,10.10
2018-04-13T07:49:54.207Z,10.20
2018-04-13T07:52:21.721Z,10.20
2018-04-13T07:54:49.897Z,10.30
2018-04-13T07:57:17.405Z,10.30
2018-04-13T07:59:45.339Z,10.40
2018-04-13T08:02:12.298Z,10.50
2018-04-13T08:04:40.032Z,10.60
2018-04-13T08:07:07.306Z,10.60
2018-04-13T08:09:34.747Z,10.70
2018-04-13T08:12:02.298Z,10.70
2018-04-13T08:14:29.758Z,10.80
2018-04-13T08:16:57.276Z,10.90
2018-04-13T08:19:25.512Z,11.00
2018-04-13T08:21:52.972Z,11.00
2018-04-13T08:24:20.478Z,11.00
2018-04-13T08:26:49.111Z,11.10
2018-04-13T08:29:16.562Z,11.10
2018-04-13T08:31:44.015Z,11.20
2018-04-13T08:34:18.516Z,11.20
2018-04-13T08:36:48.722Z,11.30
2018-04-13T08:39:16.927Z,11.40
2018-04-13T08:41:44.559Z,11.40
2018-04-13T08:44:12.762Z,11.60
2018-04-13T08:46:41.516Z,11.60
2018-04-13T08:49:09.909Z,11.80
2018-04-13T08:51:37.231Z,11.80
2018-04-13T08:54:06.061Z,12.00
2018-04-13T08:56:33.455Z,12.20
2018-04-13T08:59:01.012Z,12.30
2018-04-13T09:01:28.464Z,12.40
2018-04-13T09:03:55.915Z,12.50
2018-04-13T09:06:24.681Z,12.60
2018-04-13T09:08:52.091Z,12.70
2018-04-13T09:11:19.527Z,12.70
2018-04-13T09:13:47.008Z,12.80
2018-04-13T09:16:14.457Z,12.90
2018-04-13T09:18:42.719Z,13.10
2018-04-13T09:21:10.160Z,13.00
2018-04-13T09:23:37.692Z,13.10
2018-04-13T09:26:05.131Z,13.20
2018-04-13T09:28:33.351Z,13.30
2018-04-13T09:31:03.403Z,13.30
2018-04-13T09:33:30.871Z,13.30
2018-04-13T09:35:58.384Z,13.40
2018-04-13T09:38:25.886Z,13.40
2018-04-13T09:40:53.323Z,13.40
2018-04-13T09:43:20.780Z,13.40
2018-04-13T09:45:48.323Z,13.40
2018-04-13T09:48:16.051Z,13.40
2018-04-13T09:50:44.387Z,13.40
2018-04-13T09:53:11.849Z,13.40
2018-04-13T09:55:39.305Z,13.40
2018-04-13T09:58:06.782Z,13.50
2018-04-13T10:00:34.344Z,13.50
2018-04-13T10:03:18.574Z,13.50
2018-04-13T10:05:46.048Z,13.50
2018-04-13T10:08:13.532Z,13.50
2018-04-13T10:10:41.016Z,13.60
2018-04-13T10:13:09.228Z,13.60
2018-04-13T10:15:36.679Z,13.60
2018-04-13T10:18:04.182Z,13.60
2018-04-13T10:20:32.386Z,13.60
2018-04-13T10:22:59.863Z,13.60
2018-04-13T10:25:27.531Z,13.70
2018-04-13T10:27:55.801Z,13.70
2018-04-13T10:30:23.323Z,13.70
2018-04-13T10:32:52.150Z,13.70
2018-04-13T10:35:19.598Z,13.70
2018-04-13T10:37:47.044Z,13.70
2018-04-13T10:40:15.471Z,13.70
2018-04-13T10:42:43.967Z,13.70
2018-04-13T10:45:12.190Z,13.70
2018-04-13T10:47:39.636Z,13.70
2018-04-13T10:50:07.160Z,13.70
2018-04-13T10:52:35.398Z,13.80
2018-04-13T10:55:02.895Z,13.80
2018-04-13T10:57:31.139Z,13.80
2018-04-13T10:59:58.595Z,13.80
2018-04-13T11:02:26.056Z,13.80
2018-04-13T11:04:54.527Z,13.80
2018-04-13T11:07:21.987Z,13.80
2018-04-13T11:09:49.460Z,13.80
2018-04-13T11:12:16.919Z,13.80
2018-04-13T11:14:44.399Z,13.80
2018-04-13T11:17:11.848Z,13.80
2018-04-13T11:19:39.386Z,13.80
2018-04-13T11:22:06.841Z,13.80
2018-04-13T11:24:34.300Z,13.80
2018-04-13T11:27:01.746Z,13.90
2018-04-13T11:29:29.984Z,14.00
2018-04-13T11:31:57.434Z,14.00
2018-04-13T11:34:25.340Z,14.00
2018-04-13T11:36:52.791Z,14.00
2018-04-13T11:39:20.242Z,14.00
2018-04-13T11:41:47.893Z,14.10
2018-04-13T11:44:15.331Z,14.20
2018-04-13T11:46:43.680Z,14.40
2018-04-13T11:49:11.250Z,14.30
2018-04-13T11:51:38.700Z,14.50
2018-04-13T11:54:06.166Z,14.50
2018-04-13T11:56:34.415Z,14.70
2018-04-13T11:59:01.900Z,14.70
2018-04-13T12:01:30.126Z,14.80
2018-04-13T12:03:57.599Z,14.80
2018-04-13T12:06:25.185Z,14.90
2018-04-13T12:08:52.627Z,14.90
2018-04-13T12:11:20.087Z,14.90
2018-04-13T12:13:47.571Z,14.90
2018-04-13T12:16:15.886Z,14.90
2018-04-13T12:18:43.326Z,14.90
2018-04-13T12:21:10.771Z,14.90
2018-04-13T12:23:44.145Z,14.80
2018-04-13T12:26:11.586Z,14.80
2018-04-13T12:28:39.048Z,14.80
2018-04-13T12:31:06.596Z,14.70
2018-04-13T12:33:34.036Z,14.70
2018-04-13T12:36:01.608Z,14.70
2018-04-13T12:38:29.052Z,14.80
2018-04-13T12:40:56.595Z,14.90
2018-04-13T12:43:24.038Z,14.90
2018-04-13T12:45:52.351Z,15.00
2018-04-13T12:48:21.127Z,15.00
2018-04-13T12:50:48.576Z,15.10
2018-04-13T12:53:17.515Z,15.10
2018-04-13T12:55:44.973Z,15.20
2018-04-13T12:58:12.417Z,15.20
2018-04-13T13:00:46.026Z,15.20
2018-04-13T13:03:13.477Z,15.20
2018-04-13T13:05:40.931Z,15.20
2018-04-13T13:08:08.648Z,15.20
2018-04-13T13:10:36.868Z,15.20
2018-04-13T13:13:04.316Z,15.20
2018-04-13T13:15:31.819Z,15.20
2018-04-13T13:17:59.262Z,15.20
2018-04-13T13:20:26.719Z,15.20
2018-04-13T13:22:54.587Z,15.20
2018-04-13T13:25:30.956Z,15.30
2018-04-13T13:27:58.423Z,15.30
2018-04-13T13:30:25.867Z,15.30
2018-04-13T13:32:53.339Z,15.40
2018-04-13T13:35:20.794Z,15.40
2018-04-13T13:37:48.308Z,15.40
2018-04-13T13:40:15.747Z,15.40
2018-04-13T13:42:43.179Z,15.40
2018-04-13T13:45:11.563Z,15.40
2018-04-13T13:47:39.815Z,15.30
2018-04-13T13:50:07.276Z,15.30
2018-04-13T13:52:34.805Z,15.40
2018-04-13T13:55:02.272Z,15.40
2018-04-13T13:57:29.711Z,15.40
2018-04-13T13:59:57.199Z,15.40
2018-04-13T14:02:24.656Z,15.50
2018-04-13T14:04:52.135Z,15.50
2018-04-13T14:07:20.367Z,15.60
2018-04-13T14:09:47.823Z,15.60
2018-04-13T14:12:15.322Z,15.60
2018-04-13T14:14:42.825Z,15.60
2018-04-13T14:17:11.014Z,15.60
2018-04-13T14:19:38.462Z,15.60
2018-04-13T14:22:06.542Z,15.60
2018-04-13T14:24:34.096Z,15.60
2018-04-13T14:27:01.534Z,15.50
2018-04-13T14:29:28.975Z,15.50
2018-04-13T14:31:57.251Z,15.50
2018-04-13T14:34:25.479Z,15.50
2018-04-13T14:36:52.950Z,15.40
2018-04-13T14:39:20.431Z,15.40
2018-04-13T14:41:47.871Z,15.40
2018-04-13T14:44:15.415Z,15.30
2018-04-13T14:46:43.107Z,15.20
2018-04-13T14:49:10.544Z,15.20
2018-04-13T14:51:37.995Z,15.10
2018-04-13T14:54:05.499Z,15.10
2018-04-13T14:56:33.792Z,15.00
2018-04-13T14:59:01.229Z,15.00
2018-04-13T15:01:29.432Z,15.00
2018-04-13T15:03:56.901Z,15.00
2018-04-13T15:06:24.389Z,15.00
2018-04-13T15:08:51.838Z,14.90
2018-04-13T15:11:19.313Z,15.00
2018-04-13T15:13:50.065Z,14.90
2018-04-13T15:16:17.509Z,14.90
2018-04-13T15:18:44.943Z,14.90
2018-04-13T15:21:12.535Z,14.90
2018-04-13T15:23:39.983Z,14.90
2018-04-13T15:26:07.525Z,14.90
2018-04-13T15:28:35.014Z,14.90
2018-04-13T15:31:03.272Z,14.90
2018-04-13T15:33:30.755Z,14.90
2018-04-13T15:36:02.904Z,14.90
2018-04-13T15:38:30.397Z,14.90
2018-04-13T15:40:58.629Z,14.90
2018-04-13T15:43:26.127Z,14.90
2018-04-13T15:45:54.331Z,14.90
2018-04-13T15:48:29.027Z,15.00
2018-04-13T15:51:03.755Z,14.90
2018-04-13T15:53:31.995Z,14.90
2018-04-13T15:56:04.483Z,14.90
2018-04-13T15:58:32.167Z,14.90
2018-04-13T16:00:59.611Z,14.90
2018-04-13T16:03:27.061Z,14.90
2018-04-13T16:05:54.627Z,14.90
2018-04-13T16:08:22.104Z,14.90
2018-04-13T16:10:50.327Z,14.80
2018-04-13T16:13:18.070Z,14.80
2018-04-13T16:15:45.541Z,14.80
2018-04-13T16:18:12.986Z,14.70
2018-04-13T16:20:40.782Z,14.70
2018-04-13T16:23:08.233Z,14.70
2018-04-13T16:25:41.723Z,14.60
2018-04-13T16:28:09.178Z,14.60
2018-04-13T16:30:36.959Z,14.60
2018-04-13T16:33:04.406Z,14.70
2018-04-13T16:35:31.850Z,14.60
2018-04-13T16:37:59.336Z,14.70
2018-04-13T16:40:26.783Z,14.70
2018-04-13T16:42:54.223Z,14.70
2018-04-13T16:45:21.867Z,14.70
2018-04-13T16:47:49.320Z,14.70
2018-04-13T16:50:16.765Z,14.60
2018-04-13T16:52:45.090Z,14.70
2018-04-13T16:55:14.842Z,14.60
2018-04-13T16:57:42.355Z,14.70
2018-04-13T17:00:10.596Z,14.60
2018-04-13T17:02:38.056Z,14.60
2018-04-13T17:05:08.942Z,14.60
2018-04-13T17:07:36.528Z,14.60
2018-04-13T17:10:04.036Z,14.60
2018-04-13T17:12:31.677Z,14.60
2018-04-13T17:14:59.169Z,14.50
2018-04-13T17:17:28.493Z,14.50
2018-04-13T17:19:56.016Z,14.50
2018-04-13T17:22:23.528Z,14.50
2018-04-13T17:24:51.123Z,14.40
2018-04-13T17:27:18.591Z,14.40
2018-04-13T17:29:46.212Z,14.40
2018-04-13T17:32:14.795Z,14.40
2018-04-13T17:34:42.274Z,14.30
2018-04-13T17:37:09.929Z,14.30
2018-04-13T17:39:37.560Z,14.20
2018-04-13T17:42:05.300Z,14.20
2018-04-13T17:44:32.884Z,14.10
2018-04-13T17:47:00.443Z,14.10
2018-04-13T17:49:27.887Z,14.00
2018-04-13T17:51:55.358Z,14.00
2018-04-13T17:54:23.082Z,14.00
2018-04-13T17:56:50.552Z,13.90
2018-04-13T17:59:18.807Z,13.90
2018-04-13T18:01:46.270Z,13.90
2018-04-13T18:04:15.564Z,13.80
2018-04-13T18:06:43.155Z,13.80
2018-04-13T18:09:11.377Z,13.70
2018-04-13T18:11:38.903Z,13.70
2018-04-13T18:14:07.315Z,13.70
2018-04-13T18:16:34.846Z,13.60
2018-04-13T18:19:02.322Z,13.60
2018-04-13T18:21:29.838Z,13.50
2018-04-13T18:23:57.357Z,13.50
2018-04-13T18:26:24.849Z,13.50
2018-04-13T18:28:52.301Z,13.40
2018-04-13T18:31:19.788Z,13.40
2018-04-13T18:33:47.253Z,13.40
2018-04-13T18:36:14.704Z,13.30
2018-04-13T18:38:42.331Z,13.30
2018-04-13T18:41:09.783Z,13.30
2018-04-13T18:43:37.232Z,13.20
2018-04-13T18:46:04.904Z,13.20
2018-04-13T18:48:32.351Z,13.20
2018-04-13T18:50:59.828Z,13.20
2018-04-13T18:53:27.281Z,13.10
2018-04-13T18:55:55.504Z,13.10
2018-04-13T18:58:23.087Z,13.10
2018-04-13T19:00:50.544Z,13.00
2018-04-13T19:03:18.016Z,13.00
2018-04-13T19:05:45.460Z,13.00
2018-04-13T19:08:12.996Z,12.90
2018-04-13T19:10:42.056Z,13.00
2018-04-13T19:13:10.612Z,12.90
2018-04-13T19:15:38.064Z,12.90
2018-04-13T19:18:09.453Z,12.90
2018-04-13T19:20:37.688Z,12.80
2018-04-13T19:23:05.336Z,12.80
2018-04-13T19:25:32.796Z,12.80
2018-04-13T19:28:00.259Z,12.80
2018-04-13T19:30:27.757Z,12.80
2018-04-13T19:32:55.984Z,12.80
2018-04-13T19:35:23.446Z,12.70
2018-04-13T19:37:51.706Z,12.70
2018-04-13T19:40:19.155Z,12.70
2018-04-13T19:42:46.650Z,12.70
2018-04-13T19:48:05.104Z,12.70
2018-04-13T19:50:32.560Z,12.70
2018-04-13T19:53:00.037Z,12.70
2018-04-13T19:55:27.779Z,12.70
2018-04-13T19:57:56.025Z,12.60
2018-04-13T20:00:24.215Z,12.60
2018-04-13T20:02:52.835Z,12.60
2018-04-13T20:05:20.291Z,12.60
2018-04-13T20:07:47.739Z,12.60
2018-04-13T20:10:15.477Z,12.60
2018-04-13T20:12:42.934Z,12.60
2018-04-13T20:15:10.375Z,12.60
2018-04-13T20:17:39.033Z,12.50
2018-04-13T20:20:07.193Z,12.50
2018-04-13T20:22:34.667Z,12.50
2018-04-13T20:25:02.924Z,12.50
2018-04-13T20:27:30.373Z,12.50
2018-04-13T20:29:57.913Z,12.50
2018-04-13T20:32:25.364Z,12.50
2018-04-13T20:34:52.835Z,12.50
2018-04-13T20:37:20.331Z,12.50
2018-04-13T20:39:48.004Z,12.50
2018-04-13T20:42:16.374Z,12.50
2018-04-13T20:44:43.839Z,12.50
2018-04-13T20:47:12.052Z,12.50
2018-04-13T20:49:39.575Z,12.50
2018-04-13T20:52:07.791Z,12.40
2018-04-13T20:54:35.247Z,12.40
2018-04-13T20:57:02.872Z,12.40
2018-04-13T20:59:31.081Z,12.40
2018-04-13T21:01:58.533Z,12.40
2018-04-13T21:04:26.044Z,12.40
2018-04-13T21:06:53.520Z,12.40
2018-04-13T21:09:21.764Z,12.40
2018-04-13T21:11:49.383Z,12.40
2018-04-13T21:14:17.719Z,12.40
2018-04-13T21:16:45.179Z,12.40
2018-04-13T21:19:12.625Z,12.30
2018-04-13T21:21:40.155Z,12.30
2018-04-13T21:24:07.614Z,12.30
2018-04-13T21:26:35.240Z,12.30
2018-04-13T21:29:03.457Z,12.20
2018-04-13T21:31:30.920Z,12.20
2018-04-13T21:33:58.409Z,12.20
2018-04-13T21:36:25.870Z,12.20
2018-04-13T21:38:53.320Z,12.20
2018-04-13T21:41:20.787Z,12.20
2018-04-13T21:43:48.243Z,12.10
2018-04-13T21:46:16.568Z,12.10
2018-04-13T21:48:44.012Z,12.10
2018-04-13T21:51:11.607Z,12.10
2018-04-13T21:53:39.153Z,12.00
2018-04-13T21:56:06.541Z,12.00
2018-04-13T21:58:33.997Z,12.00
2018-04-13T22:01:01.472Z,12.00
2018-04-13T22:03:29.024Z,12.00
2018-04-13T22:05:56.464Z,12.00
2018-04-13T22:08:24.033Z,12.00
2018-04-13T22:10:51.485Z,12.00
2018-04-13T22:13:28.692Z,12.00
2018-04-13T22:15:56.132Z,11.90
2018-04-13T22:18:23.599Z,11.90
2018-04-13T22:20:51.044Z,11.90
2018-04-13T22:23:18.696Z,11.90
2018-04-13T22:25:46.146Z,11.90
2018-04-13T22:28:13.587Z,11.80
2018-04-13T22:30:44.679Z,11.80
2018-04-13T22:33:12.118Z,11.80
2018-04-13T22:35:39.567Z,11.80
2018-04-13T22:38:07.121Z,11.80
2018-04-13T22:40:34.593Z,11.80
2018-04-13T22:43:02.040Z,11.80
2018-04-13T22:45:29.731Z,11.80
2018-04-13T22:47:57.168Z,11.70
2018-04-13T22:50:24.613Z,11.70
2018-04-13T22:52:53.506Z,11.70
2018-04-13T22:55:20.956Z,11.70
2018-04-13T22:57:48.406Z,11.70
2018-04-13T23:00:15.892Z,11.70
2018-04-13T23:02:43.353Z,11.70
2018-04-13T23:05:10.799Z,11.60
2018-04-13T23:07:38.395Z,11.60
2018-04-13T23:10:06.613Z,11.60
2018-04-13T23:12:34.059Z,11.60
2018-04-13T23:15:01.620Z,11.50
2018-04-13T23:17:29.057Z,11.50
2018-04-13T23:19:57.275Z,11.50
2018-04-13T23:22:36.866Z,11.50
2018-04-13T23:25:05.100Z,11.50
2018-04-13T23:27:32.730Z,11.50
2018-04-13T23:30:00.187Z,11.50
2018-04-13T23:32:27.653Z,11.50
2018-04-13T23:34:55.124Z,11.40
2018-04-13T23:37:22.672Z,11.40
2018-04-13T23:39:50.136Z,11.40
2018-04-13T23:42:17.588Z,11.30
2018-04-13T23:44:45.051Z,11.30
2018-04-13T23:47:12.511Z,11.30
2018-04-13T23:49:40.015Z,11.30
2018-04-13T23:52:07.459Z,11.20
2018-04-13T23:54:35.007Z,11.20
2018-04-13T23:57:02.464Z,11.20
2018-04-13T23:59:29.938Z,11.10
